To NAV CANADA Home Page Login to a new session Search on AWWS site Feedback and Comments Disclaimer Vers la page française équivalente Tips FAQ What's new on the site To the Forecasts and Observations / NOTAM section To "File a Flight Plan" website Publications and other links Update of the User's profile FIC Telephone Numbers My Weather Data Folder Route Weather Data Regional Weather Data Local Weather Data To the Forecasts and Observations / NOTAM section
Request Generated 07/06/2015 at 07:15:33 UTC . Weather information available at that time is displayed.

METAR/TAF

KITCHENER/WATERLOO/ON    (show WxCam)

SPECI CYKF 060702Z AUTO 00000KT 1 3/4SM BR CLR 14/14 A3010 RMK
SLP190=
METAR CYKF 060700Z AUTO 00000KT 2 1/2SM BR CLR 14/14 A3010 RMK
SLP189=
SPECI CYKF 060650Z AUTO 00000KT 2 1/2SM BR CLR 15/14 A3010 RMK
SLP190=
SPECI CYKF 060620Z AUTO 13002KT 3SM BR CLR 14/14 A3010 RMK SLP190=
SPECI CYKF 060619Z AUTO 13002KT 2 1/2SM BR CLR 14/14 A3010 RMK VIS
VRB 1 1/4-3 SLP190=
METAR CYKF 060600Z AUTO 00000KT 1 1/2SM BR CLR 15/14 A3011 RMK
SLP192=
SPECI CYKF 060543Z AUTO 00000KT 1 3/4SM BR CLR 15/14 A3011 RMK
SLP192=
SPECI CYKF 060538Z AUTO 00000KT 2 1/4SM BR CLR 15/14 A3011 RMK
SLP192=
SPECI CYKF 060528Z AUTO 00000KT 3SM BR CLR 15/14 A3011 RMK SLP192=
SPECI CYKF 060519Z AUTO 00000KT 2 1/2SM BR CLR 15/14 A3011 RMK
SLP193=
METAR CYKF 060500Z AUTO 00000KT 5SM BR CLR 15/15 A3011 RMK SLP194
DENSITY ALT 1100FT=

*** REMARK        : Forecast period has ended; this was the last TAF issued
*** REMARQUE : La période de prévision est échue; ceci était le dernier TAF qui a été émis
TAF CYKF 060138Z 0602/0604 VRB03KT P6SM BKN280
RMK FCST BASED ON AUTO OBS. NXT FCST WILL BE ISSUED AT 060945Z=
Your time UTC time
Weather data provided by Environment Canada and NAV CANADA